Time;durP1;ratioP1;P1;durP2;ratioP2;P2;SDS_P1;SDS_P2;PMS_P1;PMS_P2;Temp;Humidity;BMP_temperature;BMP_pressure;BME280_temperature;BME280_humidity;BME280_pressure;Samples;Min_cycle;Max_cycle;Signal;HPM_P1;HPM_P2
2023/11/26 00:00:23;;;;;;;11.70;5.82;;;;;;;3.94;100.00;101484.28;5271301;28;20273;-76
2023/11/26 00:02:55;;;;;;;11.48;6.25;;;;;;;3.92;100.00;101480.09;5267294;28;20771;-76
2023/11/26 00:05:26;;;;;;;14.63;6.13;;;;;;;3.94;100.00;101480.84;5266873;28;20028;-76
2023/11/26 00:07:58;;;;;;;11.95;5.35;;;;;;;3.90;100.00;101480.13;5269799;28;20438;-76
2023/11/26 00:10:30;;;;;;;8.80;4.38;;;;;;;3.89;100.00;101478.47;5274797;28;20387;-76
2023/11/26 00:13:02;;;;;;;8.80;4.20;;;;;;;3.91;100.00;101476.66;5271859;28;20032;-76
2023/11/26 00:15:35;;;;;;;8.13;4.03;;;;;;;3.87;100.00;101473.38;5274888;28;20054;-76
2023/11/26 00:18:07;;;;;;;11.43;4.60;;;;;;;3.92;100.00;101480.91;5273642;28;20320;-76
2023/11/26 00:20:39;;;;;;;10.77;5.22;;;;;;;3.80;100.00;101473.72;5275079;28;20610;-75
2023/11/26 00:23:11;;;;;;;9.27;4.57;;;;;;;3.87;100.00;101480.31;5272708;28;20029;-75
2023/11/26 00:25:43;;;;;;;8.45;4.28;;;;;;;3.85;100.00;101487.31;5274323;28;20028;-76
2023/11/26 00:28:15;;;;;;;10.38;4.65;;;;;;;3.80;100.00;101487.50;5273416;28;20647;-76
2023/11/26 00:30:47;;;;;;;8.95;5.10;;;;;;;3.80;100.00;101489.28;5272216;28;20046;-76
2023/11/26 00:33:20;;;;;;;10.80;4.55;;;;;;;3.75;100.00;101486.03;5273888;28;20533;-76
2023/11/26 00:35:52;;;;;;;9.75;4.13;;;;;;;3.66;100.00;101472.59;5275296;28;20393;-76
2023/11/26 00:38:24;;;;;;;9.82;4.50;;;;;;;3.68;100.00;101469.94;5274021;28;20028;-76
2023/11/26 00:40:56;;;;;;;8.88;3.60;;;;;;;3.73;100.00;101474.91;5272529;28;20131;-76
2023/11/26 00:43:28;;;;;;;10.65;3.78;;;;;;;3.69;100.00;101470.78;5273287;28;20111;-76
2023/11/26 00:46:00;;;;;;;5.90;2.90;;;;;;;3.74;100.00;101471.41;5272498;28;20029;-76
2023/11/26 00:48:32;;;;;;;8.20;2.92;;;;;;;3.77;100.00;101472.09;5272712;28;20039;-76
2023/11/26 00:51:06;;;;;;;6.93;3.00;;;;;;;3.76;100.00;101473.03;5271934;28;20079;-76
2023/11/26 00:53:38;;;;;;;7.85;2.70;;;;;;;3.75;100.00;101473.06;5286011;28;20391;-76
2023/11/26 00:56:11;;;;;;;9.27;3.00;;;;;;;3.75;100.00;101466.16;5293468;28;20031;-76
2023/11/26 00:58:43;;;;;;;8.90;3.30;;;;;;;3.78;100.00;101470.34;5290232;28;20366;-75
2023/11/26 01:01:16;;;;;;;6.60;2.67;;;;;;;3.74;100.00;101469.66;5283729;28;20282;-76
2023/11/26 01:03:47;;;;;;;10.35;2.72;;;;;;;3.76;100.00;101467.84;5286789;28;20031;-76
2023/11/26 01:06:20;;;;;;;9.52;2.58;;;;;;;3.76;100.00;101465.25;5279247;28;20464;-76
2023/11/26 01:08:52;;;;;;;8.00;2.83;;;;;;;3.76;100.00;101467.00;5284393;28;20390;-75
2023/11/26 01:11:25;;;;;;;7.32;2.53;;;;;;;3.73;100.00;101477.50;5291182;28;20036;-76
2023/11/26 01:13:57;;;;;;;7.07;2.67;;;;;;;3.73;100.00;101469.72;5292679;28;20032;-76
2023/11/26 01:16:29;;;;;;;6.38;2.45;;;;;;;3.69;100.00;101470.78;5274609;28;20062;-76
2023/11/26 01:19:01;;;;;;;6.40;2.10;;;;;;;3.68;100.00;101469.94;5294787;28;20023;-76
2023/11/26 01:21:33;;;;;;;6.80;2.60;;;;;;;3.68;100.00;101474.28;5296477;28;20028;-76
2023/11/26 01:24:08;;;;;;;11.02;3.42;;;;;;;3.71;100.00;101469.78;5293021;28;20029;-76
2023/11/26 01:26:41;;;;;;;9.18;2.92;;;;;;;3.66;100.00;101467.41;5289280;28;20036;-76
2023/11/26 01:29:13;;;;;;;7.20;2.70;;;;;;;3.70;100.00;101464.69;5295163;28;20029;-76
2023/11/26 01:31:45;;;;;;;6.22;2.38;;;;;;;3.73;100.00;101470.56;5295172;28;20038;-75
2023/11/26 01:34:17;;;;;;;9.35;2.80;;;;;;;3.77;100.00;101472.09;5293761;28;20106;-75
2023/11/26 01:36:48;;;;;;;6.97;3.00;;;;;;;3.82;100.00;101466.69;5295423;28;20063;-75
2023/11/26 01:39:20;;;;;;;10.13;3.45;;;;;;;3.84;100.00;101470.91;5296691;28;20031;-75
2023/11/26 01:41:52;;;;;;;10.88;3.55;;;;;;;3.88;100.00;101469.84;5295310;28;20056;-75
2023/11/26 01:44:24;;;;;;;10.30;3.20;;;;;;;3.89;100.00;101468.09;5298845;28;20028;-75
2023/11/26 01:47:05;;;;;;;9.35;3.70;;;;;;;4.02;100.00;101469.22;5296592;28;20203;-76
2023/11/26 01:49:37;;;;;;;10.85;2.78;;;;;;;4.00;100.00;101459.81;5296956;28;20032;-75
2023/11/26 01:52:12;;;;;;;9.35;3.10;;;;;;;4.11;100.00;101475.72;5295107;28;20028;-76
2023/11/26 01:54:44;;;;;;;10.73;3.33;;;;;;;4.07;100.00;101471.59;5295394;28;20070;-75
2023/11/26 01:57:18;;;;;;;9.18;2.85;;;;;;;4.15;100.00;101465.09;5295919;28;20392;-75
2023/11/26 01:59:50;;;;;;;10.60;3.05;;;;;;;4.16;100.00;101471.13;5297965;28;20040;-75
2023/11/26 02:02:22;;;;;;;9.65;3.30;;;;;;;4.18;100.00;101474.50;5296933;28;20032;-76
2023/11/26 02:04:54;;;;;;;10.43;3.08;;;;;;;4.21;100.00;101473.53;5295876;28;20492;-75
2023/11/26 02:07:26;;;;;;;8.98;2.90;;;;;;;4.28;100.00;101478.34;5294975;28;20032;-76
2023/11/26 02:09:58;;;;;;;11.00;2.80;;;;;;;4.26;100.00;101477.56;5294195;28;20016;-76
2023/11/26 02:12:30;;;;;;;6.60;2.40;;;;;;;4.28;100.00;101485.25;5296620;28;20042;-76
2023/11/26 02:15:03;;;;;;;9.80;2.72;;;;;;;4.28;100.00;101477.47;5293586;28;20060;-76
2023/11/26 02:17:35;;;;;;;10.38;3.05;;;;;;;4.27;100.00;101474.03;5280129;28;20055;-76
2023/11/26 02:20:12;;;;;;;10.32;3.05;;;;;;;4.32;100.00;101477.28;5295639;28;20055;-76
2023/11/26 02:22:44;;;;;;;9.30;3.03;;;;;;;4.35;100.00;101481.47;5297758;28;20030;-77
2023/11/26 02:25:16;;;;;;;9.27;2.60;;;;;;;4.39;100.00;101485.59;5292080;28;20040;-76
2023/11/26 02:27:48;;;;;;;8.55;2.80;;;;;;;4.42;100.00;101479.41;5294626;28;20496;-76
2023/11/26 02:30:20;;;;;;;9.20;2.83;;;;;;;4.47;100.00;101480.03;5294410;28;20035;-76
2023/11/26 02:32:52;;;;;;;10.83;3.40;;;;;;;4.52;100.00;101472.88;5293760;28;20035;-76
2023/11/26 02:35:25;;;;;;;12.50;2.85;;;;;;;4.52;100.00;101481.50;5294738;28;20036;-76
2023/11/26 02:37:57;;;;;;;10.05;3.25;;;;;;;4.56;100.00;101488.19;5293894;28;20020;-76
2023/11/26 02:40:30;;;;;;;9.60;2.90;;;;;;;4.52;100.00;101471.09;5295075;28;20058;-77
2023/11/26 02:43:02;;;;;;;12.18;3.28;;;;;;;4.63;100.00;101479.19;5276588;28;20040;-76
2023/11/26 02:45:34;;;;;;;12.10;3.22;;;;;;;4.62;100.00;101474.94;5295085;28;20040;-76
2023/11/26 02:48:08;;;;;;;9.10;2.70;;;;;;;4.62;100.00;101484.44;5277766;28;20043;-77
2023/11/26 02:50:39;;;;;;;11.30;3.60;;;;;;;4.57;100.00;101476.91;5292698;28;20043;-76
2023/11/26 02:53:11;;;;;;;8.88;2.92;;;;;;;4.57;100.00;101487.28;5295227;28;20048;-76
2023/11/26 02:55:44;;;;;;;11.32;3.25;;;;;;;4.61;100.00;101488.81;5294411;28;20401;-77
2023/11/26 02:58:16;;;;;;;10.07;3.17;;;;;;;4.60;100.00;101488.91;5272900;28;20048;-76
2023/11/26 03:00:49;;;;;;;11.65;2.97;;;;;;;4.64;100.00;101488.66;5274244;28;20043;-77
2023/11/26 03:03:20;;;;;;;8.30;3.10;;;;;;;4.63;100.00;101491.34;5289415;28;20032;-76
2023/11/26 03:05:54;;;;;;;9.75;2.97;;;;;;;4.71;100.00;101483.19;5294499;28;20099;-77
2023/11/26 03:08:32;;;;;;;9.82;2.92;;;;;;;4.74;100.00;101483.03;5294942;28;20039;-76
2023/11/26 03:13:55;;;;;;;9.50;3.13;;;;;;;4.77;100.00;101478.53;5294552;28;20040;-77
2023/11/26 03:16:27;;;;;;;10.05;2.85;;;;;;;4.83;100.00;101475.59;5277777;28;20040;-76
2023/11/26 03:18:59;;;;;;;6.57;2.45;;;;;;;4.84;100.00;101479.03;5290725;28;20047;-77
2023/11/26 03:21:31;;;;;;;7.82;2.60;;;;;;;4.85;100.00;101473.78;5295072;28;20115;-76
2023/11/26 03:24:04;;;;;;;8.65;2.85;;;;;;;4.89;100.00;101477.06;5295393;28;20038;-76
2023/11/26 03:26:36;;;;;;;;;;;;;;;5.51;100.00;101482.50;5294118;28;20027;-76
2023/11/26 03:29:09;;;;;;;10.40;3.80;;;;;;;5.00;100.00;101476.50;5290115;28;20510;-76
2023/11/26 03:31:41;;;;;;;10.85;3.05;;;;;;;5.00;100.00;101481.69;5295693;28;20030;-77
2023/11/26 03:34:13;;;;;;;8.93;2.80;;;;;;;5.01;100.00;101480.78;5293698;28;20031;-77
2023/11/26 03:36:45;;;;;;;14.20;3.17;;;;;;;4.97;100.00;101479.25;5293448;28;20514;-77
2023/11/26 03:39:18;;;;;;;9.85;2.85;;;;;;;4.99;100.00;101475.66;5292500;28;20573;-76
2023/11/26 03:41:50;;;;;;;10.25;2.80;;;;;;;5.03;100.00;101484.13;5293346;28;20746;-76
2023/11/26 03:44:22;;;;;;;8.90;2.58;;;;;;;5.06;100.00;101478.78;5292228;28;20032;-77
2023/11/26 03:46:54;;;;;;;8.15;3.00;;;;;;;5.05;100.00;101490.09;5277000;28;20054;-77
2023/11/26 03:49:26;;;;;;;8.88;2.55;;;;;;;5.03;100.00;101491.91;5296085;28;20123;-76
2023/11/26 03:51:57;;;;;;;7.28;2.60;;;;;;;5.06;100.00;101489.16;5292750;28;20032;-76
2023/11/26 03:54:29;;;;;;;9.13;3.08;;;;;;;5.04;100.00;101481.47;5296222;28;20051;-77
2023/11/26 03:57:01;;;;;;;13.43;2.88;;;;;;;5.07;100.00;101488.25;5293925;28;20028;-76
2023/11/26 03:59:33;;;;;;;8.35;2.60;;;;;;;5.04;100.00;101485.81;5294308;28;20035;-77
2023/11/26 04:02:05;;;;;;;10.90;2.92;;;;;;;5.07;100.00;101490.84;5290320;28;20115;-76
2023/11/26 04:04:37;;;;;;;6.22;2.47;;;;;;;5.08;100.00;101490.78;5294256;28;20034;-76
2023/11/26 04:07:09;;;;;;;12.73;2.95;;;;;;;5.15;100.00;101496.47;5292988;28;20044;-76
2023/11/26 04:09:41;;;;;;;8.63;2.60;;;;;;;5.15;100.00;101491.28;5291737;28;20389;-76
2023/11/26 04:12:13;;;;;;;8.40;2.83;;;;;;;5.22;100.00;101495.25;5293960;28;20495;-76
2023/11/26 04:14:59;;;;;;;8.27;2.50;;;;;;;5.44;100.00;101492.38;5292543;28;20115;-76
2023/11/26 04:17:31;;;;;;;8.30;2.53;;;;;;;5.28;100.00;101484.53;5291159;28;20032;-76
2023/11/26 04:20:05;;;;;;;8.23;2.75;;;;;;;5.30;100.00;101487.91;5294240;28;20034;-76
2023/11/26 04:22:37;;;;;;;8.77;2.50;;;;;;;5.25;100.00;101481.25;5295037;28;20035;-77
2023/11/26 04:25:09;;;;;;;8.88;2.67;;;;;;;5.29;100.00;101490.56;5295168;28;20043;-76
2023/11/26 04:27:41;;;;;;;7.95;2.38;;;;;;;5.26;100.00;101485.53;5274947;28;20055;-77
2023/11/26 04:30:13;;;;;;;7.00;2.72;;;;;;;5.29;100.00;101485.38;5293283;28;20028;-76
2023/11/26 04:32:45;;;;;;;7.35;2.30;;;;;;;5.36;100.00;101491.94;5292550;28;20048;-76
2023/11/26 04:35:17;;;;;;;8.15;2.97;;;;;;;5.38;100.00;101484.91;5291925;28;20031;-77
2023/11/26 04:37:49;;;;;;;11.65;2.88;;;;;;;5.42;100.00;101485.56;5292752;28;20038;-76
2023/11/26 04:40:21;;;;;;;11.02;2.58;;;;;;;5.35;100.00;101479.88;5293956;28;20022;-77
2023/11/26 04:42:53;;;;;;;9.32;2.63;;;;;;;5.44;100.00;101491.53;5293652;28;20059;-76
2023/11/26 04:45:25;;;;;;;9.52;2.70;;;;;;;5.45;100.00;101498.41;5292037;28;20020;-77
2023/11/26 04:47:57;;;;;;;6.63;2.10;;;;;;;5.42;100.00;101494.22;5294480;28;20118;-76
2023/11/26 04:50:29;;;;;;;5.95;2.20;;;;;;;5.50;100.00;101499.00;5291538;28;20047;-76
2023/11/26 04:53:01;;;;;;;8.75;2.58;;;;;;;5.48;100.00;101495.63;5294657;28;20126;-77
2023/11/26 04:55:33;;;;;;;9.25;2.55;;;;;;;5.44;100.00;101501.91;5296570;28;20110;-76
2023/11/26 04:58:05;;;;;;;7.70;2.28;;;;;;;5.48;100.00;101516.44;5296051;28;20477;-77
2023/11/26 05:00:37;;;;;;;6.95;2.42;;;;;;;5.50;100.00;101518.03;5298009;28;20047;-77
2023/11/26 05:03:09;;;;;;;8.43;2.15;;;;;;;5.52;100.00;101516.19;5296189;28;20067;-76
2023/11/26 05:05:41;;;;;;;9.02;2.60;;;;;;;5.54;100.00;101521.31;5296500;28;20028;-76
2023/11/26 05:08:13;;;;;;;15.90;3.30;;;;;;;5.56;100.00;101520.28;5294747;28;20516;-77
2023/11/26 05:10:45;;;;;;;16.90;3.67;;;;;;;5.59;100.00;101522.72;5297234;28;20339;-77
2023/11/26 05:13:17;;;;;;;10.95;3.00;;;;;;;5.60;100.00;101523.56;5295188;28;20034;-76
2023/11/26 05:15:49;;;;;;;8.90;2.65;;;;;;;5.61;100.00;101517.47;5299505;28;20032;-76
2023/11/26 05:18:21;;;;;;;8.68;2.30;;;;;;;5.61;100.00;101507.91;5296956;28;20214;-76
2023/11/26 05:20:53;;;;;;;8.32;2.60;;;;;;;5.60;100.00;101506.22;5298015;28;20028;-77
2023/11/26 05:23:25;;;;;;;7.65;2.30;;;;;;;5.64;100.00;101500.84;5293142;28;20054;-75
2023/11/26 05:25:57;;;;;;;11.15;2.67;;;;;;;5.59;100.00;101498.50;5295195;28;20035;-75
2023/11/26 05:28:29;;;;;;;10.88;2.58;;;;;;;5.60;100.00;101500.19;5295189;28;20516;-75
2023/11/26 05:31:01;;;;;;;8.10;2.67;;;;;;;5.63;100.00;101500.03;5296517;28;20012;-76
2023/11/26 05:33:33;;;;;;;8.77;2.83;;;;;;;5.67;100.00;101495.50;5295005;28;20032;-76
2023/11/26 05:36:05;;;;;;;9.02;2.70;;;;;;;5.68;100.00;101503.19;5297863;28;20717;-76
2023/11/26 05:38:37;;;;;;;7.00;2.40;;;;;;;5.74;100.00;101499.44;5296449;28;20043;-76
2023/11/26 05:41:09;;;;;;;8.02;2.63;;;;;;;5.74;100.00;101502.06;5297805;28;20051;-76
2023/11/26 05:43:41;;;;;;;11.70;2.97;;;;;;;5.73;100.00;101501.22;5294463;28;20028;-76
2023/11/26 05:46:13;;;;;;;7.20;2.30;;;;;;;5.74;100.00;101497.69;5287880;28;20040;-76
2023/11/26 05:48:45;;;;;;;6.30;2.55;;;;;;;5.76;100.00;101505.41;5298476;28;20030;-76
2023/11/26 05:51:21;;;;;;;5.63;1.98;;;;;;;5.86;100.00;101498.78;5273645;28;20047;-76
2023/11/26 05:53:54;;;;;;;10.57;2.42;;;;;;;5.77;100.00;101497.53;5287303;28;20044;-76
2023/11/26 05:56:25;;;;;;;6.00;2.23;;;;;;;5.80;100.00;101493.94;5284630;28;20028;-76
2023/11/26 05:58:57;;;;;;;6.30;1.80;;;;;;;5.81;100.00;101499.03;5268395;28;20313;-76
2023/11/26 06:01:29;;;;;;;7.80;2.90;;;;;;;5.82;100.00;101495.50;5287453;28;20480;-76
2023/11/26 06:04:02;;;;;;;4.45;2.08;;;;;;;5.83;100.00;101499.81;5284587;28;20432;-76
2023/11/26 06:06:34;;;;;;;5.72;1.92;;;;;;;5.82;100.00;101492.06;5284336;28;20028;-76
2023/11/26 06:09:06;;;;;;;7.57;2.30;;;;;;;5.94;100.00;101504.44;5286490;28;20024;-76
2023/11/26 06:11:38;;;;;;;13.57;2.33;;;;;;;5.98;100.00;101500.72;5286697;28;20020;-76
2023/11/26 06:14:09;;;;;;;7.10;2.30;;;;;;;5.93;100.00;101488.91;5285990;28;20440;-76
2023/11/26 06:16:42;;;;;;;6.10;2.20;;;;;;;6.00;100.00;101498.91;5289237;28;20032;-76
2023/11/26 06:19:16;;;;;;;5.38;1.92;;;;;;;6.04;100.00;101508.22;5285005;28;20037;-76
2023/11/26 06:21:48;;;;;;;6.07;2.45;;;;;;;5.97;100.00;101496.47;5286897;28;20569;-76
2023/11/26 06:24:20;;;;;;;10.93;2.28;;;;;;;6.03;100.00;101511.75;5286923;28;20031;-76
2023/11/26 06:26:52;;;;;;;5.95;1.95;;;;;;;5.96;100.00;101520.78;5284908;28;20031;-76
2023/11/26 06:29:24;;;;;;;8.55;2.17;;;;;;;6.02;100.00;101517.00;5286671;28;20512;-76
2023/11/26 06:31:56;;;;;;;11.23;2.40;;;;;;;6.03;100.00;101508.31;5284800;28;21032;-76
2023/11/26 06:34:28;;;;;;;6.28;2.00;;;;;;;6.05;100.00;101516.84;5280586;28;20032;-75
2023/11/26 06:37:00;;;;;;;5.38;2.08;;;;;;;6.05;100.00;101511.63;5286449;28;20028;-75
2023/11/26 06:39:32;;;;;;;6.22;2.17;;;;;;;6.09;100.00;101511.38;5288101;28;20028;-75
2023/11/26 06:42:05;;;;;;;9.15;2.58;;;;;;;6.08;100.00;101506.28;5287021;28;20374;-76
2023/11/26 06:44:36;;;;;;;9.27;2.47;;;;;;;6.10;100.00;101509.66;5285736;28;20129;-76
2023/11/26 06:47:08;;;;;;;8.13;1.98;;;;;;;6.07;100.00;101505.44;5287616;28;20028;-76
2023/11/26 06:49:40;;;;;;;7.65;2.58;;;;;;;6.00;100.00;101492.88;5284312;28;20111;-76
2023/11/26 06:52:12;;;;;;;6.53;2.47;;;;;;;6.05;100.00;101504.69;5268310;28;20040;-76
2023/11/26 06:54:44;;;;;;;6.40;2.22;;;;;;;6.07;100.00;101507.22;5294182;28;20106;-75
2023/11/26 06:57:16;;;;;;;17.38;3.53;;;;;;;6.04;100.00;101500.41;5294785;28;20334;-76
2023/11/26 06:59:48;;;;;;;6.43;2.40;;;;;;;6.05;100.00;101502.06;5292036;28;20042;-76
2023/11/26 07:02:20;;;;;;;7.20;2.80;;;;;;;6.06;100.00;101503.78;5288778;28;20046;-76
2023/11/26 07:04:52;;;;;;;9.38;3.15;;;;;;;6.07;100.00;101499.41;5293481;28;20027;-76
2023/11/26 07:07:23;;;;;;;8.32;3.17;;;;;;;6.08;100.00;101493.28;5295385;28;20039;-76
2023/11/26 07:09:57;;;;;;;7.47;2.97;;;;;;;6.07;100.00;101489.00;5292348;28;20026;-76
2023/11/26 07:12:29;;;;;;;8.90;3.63;;;;;;;6.19;100.00;101503.91;5293023;28;20484;-76
2023/11/26 07:15:01;;;;;;;9.48;3.08;;;;;;;6.20;100.00;101510.78;5295722;28;20480;-76
2023/11/26 07:17:33;;;;;;;8.50;3.15;;;;;;;6.18;100.00;101502.25;5295162;28;20030;-76
2023/11/26 07:20:09;;;;;;;6.95;3.00;;;;;;;6.20;100.00;101509.97;5292216;28;20110;-76
2023/11/26 07:22:41;;;;;;;8.75;3.30;;;;;;;6.16;100.00;101493.69;5293413;28;20043;-76
2023/11/26 07:25:15;;;;;;;8.98;3.38;;;;;;;6.25;100.00;101500.13;5291812;28;20028;-75
2023/11/26 07:27:47;;;;;;;10.13;3.10;;;;;;;6.23;100.00;101507.19;5292306;28;20044;-75
2023/11/26 07:30:19;;;;;;;8.77;2.80;;;;;;;6.23;100.00;101507.19;5296770;28;20032;-75
2023/11/26 07:32:51;;;;;;;8.55;2.90;;;;;;;6.25;100.00;101511.41;5290799;28;20027;-75
2023/11/26 07:35:23;;;;;;;12.13;3.22;;;;;;;6.24;100.00;101501.06;5292055;28;20032;-75
2023/11/26 07:37:56;;;;;;;12.07;3.20;;;;;;;6.28;100.00;101502.56;5290685;28;20366;-76
2023/11/26 07:40:31;;;;;;;10.63;3.33;;;;;;;6.25;100.00;101500.97;5276091;28;20044;-76
2023/11/26 07:43:04;;;;;;;7.93;3.92;;;;;;;6.25;100.00;101503.59;5293018;28;20034;-76
2023/11/26 07:45:37;;;;;;;9.10;3.67;;;;;;;6.31;100.00;101503.22;5294348;28;20034;-75
2023/11/26 07:48:09;;;;;;;9.25;3.42;;;;;;;6.38;100.00;101508.94;5273075;28;20406;-76
2023/11/26 07:50:41;;;;;;;6.85;3.35;;;;;;;6.36;100.00;101509.94;5293371;28;20047;-76
2023/11/26 07:53:13;;;;;;;10.57;3.72;;;;;;;6.36;100.00;101513.38;5293070;28;20046;-76
2023/11/26 07:55:45;;;;;;;11.43;4.32;;;;;;;6.39;100.00;101499.34;5292819;28;20032;-76
2023/11/26 07:58:20;;;;;;;9.00;3.90;;;;;;;6.39;100.00;101504.56;5290924;28;20032;-76
2023/11/26 08:00:52;;;;;;;10.63;3.95;;;;;;;6.42;100.00;101497.41;5288939;28;20024;-76
2023/11/26 08:03:26;;;;;;;9.55;4.50;;;;;;;6.46;100.00;101498.91;5293431;28;20028;-76
2023/11/26 08:06:17;;;;;;;10.15;4.15;;;;;;;6.53;100.00;101502.00;5293115;28;20024;-76
2023/11/26 08:08:49;;;;;;;9.88;4.28;;;;;;;6.60;100.00;101502.50;5288072;28;20055;-76
2023/11/26 08:11:21;;;;;;;13.38;4.53;;;;;;;6.56;100.00;101501.84;5289109;28;20028;-77
2023/11/26 08:13:53;;;;;;;11.65;4.65;;;;;;;6.62;100.00;101504.06;5290487;28;20027;-76
2023/11/26 08:16:25;;;;;;;9.98;4.50;;;;;;;6.61;100.00;101505.00;5292820;28;20505;-76
2023/11/26 08:19:01;;;;;;;13.70;4.68;;;;;;;6.68;100.00;101513.31;5290629;28;20115;-76
2023/11/26 08:21:35;;;;;;;11.85;5.20;;;;;;;6.71;100.00;101513.16;5292070;28;20050;-76
2023/11/26 08:24:13;;;;;;;13.98;5.32;;;;;;;6.73;100.00;101511.28;5292214;28;20452;-76
2023/11/26 08:26:46;;;;;;;11.55;5.55;;;;;;;6.73;100.00;101513.88;5291977;28;20032;-76
2023/11/26 08:29:19;;;;;;;10.82;4.80;;;;;;;6.76;100.00;101517.16;5289733;28;20393;-76
2023/11/26 08:31:50;;;;;;;15.50;6.07;;;;;;;6.76;100.00;101517.16;5291071;28;20486;-76
2023/11/26 08:34:22;;;;;;;15.80;5.82;;;;;;;6.78;100.00;101519.66;5292363;28;20036;-76
2023/11/26 08:36:57;;;;;;;9.98;5.38;;;;;;;6.82;100.00;101516.81;5289889;28;20030;-76
2023/11/26 08:39:29;;;;;;;17.05;6.25;;;;;;;6.86;100.00;101516.59;5293622;28;20034;-76
2023/11/26 08:42:04;;;;;;;11.73;5.38;;;;;;;6.95;100.00;101514.31;5284663;28;20024;-76
2023/11/26 08:44:36;;;;;;;10.48;5.95;;;;;;;6.89;100.00;101509.44;5289422;28;20039;-76
2023/11/26 08:47:08;;;;;;;16.25;7.15;;;;;;;6.91;100.00;101502.38;5290921;28;20041;-76
2023/11/26 08:49:41;;;;;;;15.02;6.88;;;;;;;6.96;100.00;101502.09;5289539;28;20043;-76
2023/11/26 08:52:12;;;;;;;18.77;6.63;;;;;;;7.03;100.00;101506.03;5286965;28;20024;-76
2023/11/26 08:54:44;;;;;;;13.35;5.95;;;;;;;6.97;100.00;101485.53;5292004;28;20288;-76
2023/11/26 08:57:21;;;;;;;15.07;7.35;;;;;;;7.11;100.00;101500.38;5288484;28;20030;-76
2023/11/26 08:59:53;;;;;;;14.88;6.65;;;;;;;7.13;100.00;101501.97;5289356;28;20499;-75
2023/11/26 09:02:25;;;;;;;12.68;6.25;;;;;;;7.20;100.00;101513.69;5288537;28;20103;-75
2023/11/26 09:04:57;;;;;;;13.95;6.22;;;;;;;7.18;100.00;101510.34;5289248;28;20050;-76
2023/11/26 09:07:29;;;;;;;19.48;6.63;;;;;;;7.25;100.00;101506.44;5278938;28;20142;-76
2023/11/26 09:10:02;;;;;;;13.73;6.20;;;;;;;7.27;100.00;101508.94;5290816;28;20089;-75
2023/11/26 09:12:34;;;;;;;;;;;;;;;7.98;100.00;101511.47;5288185;28;20247;-76
2023/11/26 09:15:10;;;;;;;11.98;5.85;;;;;;;7.52;100.00;101509.13;5272895;28;19927;-76
2023/11/26 09:17:42;;;;;;;14.25;7.32;;;;;;;7.42;100.00;101515.81;5293486;28;20040;-76
2023/11/26 09:20:15;;;;;;;11.77;5.78;;;;;;;7.46;100.00;101522.56;5289708;28;20025;-76
2023/11/26 09:22:48;;;;;;;13.55;6.30;;;;;;;7.51;100.00;101509.22;5288316;28;20020;-76
2023/11/26 09:25:19;;;;;;;11.15;5.85;;;;;;;7.52;100.00;101503.06;5291993;28;20028;-76
2023/11/26 09:27:51;;;;;;;12.50;5.70;;;;;;;7.53;100.00;101510.78;5274038;28;20047;-76
2023/11/26 09:30:23;;;;;;;10.80;6.63;;;;;;;7.51;100.00;101507.47;5289749;28;20038;-76
2023/11/26 09:32:55;;;;;;;13.73;6.03;;;;;;;7.55;100.00;101511.53;5291223;28;20067;-76
2023/11/26 09:35:27;;;;;;;11.98;5.97;;;;;;;7.56;100.00;101499.34;5291425;28;20028;-76
2023/11/26 09:37:59;;;;;;;11.20;5.70;;;;;;;7.66;100.00;101510.06;5287802;28;20033;-76
2023/11/26 09:40:31;;;;;;;9.40;5.55;;;;;;;7.65;100.00;101509.22;5295497;28;20419;-75
2023/11/26 09:43:03;;;;;;;11.65;5.75;;;;;;;7.67;100.00;101506.50;5297482;28;20028;-76
2023/11/26 09:45:37;;;;;;;12.55;5.70;;;;;;;7.67;100.00;101504.72;5292622;28;20043;-76
2023/11/26 09:48:09;;;;;;;10.00;5.13;;;;;;;7.74;100.00;101508.63;5295264;28;20032;-76
2023/11/26 09:50:42;;;;;;;11.32;6.43;;;;;;;7.74;100.00;101513.03;5291952;28;20036;-75
2023/11/26 09:53:14;;;;;;;8.45;5.10;;;;;;;7.82;100.00;101510.78;5292253;28;20497;-76
2023/11/26 09:55:47;;;;;;;9.18;4.95;;;;;;;7.86;100.00;101511.41;5292420;28;20032;-76
2023/11/26 09:58:19;;;;;;;9.05;5.03;;;;;;;7.89;100.00;101506.00;5293581;28;20479;-76
2023/11/26 10:00:51;;;;;;;9.50;5.28;;;;;;;7.92;100.00;101504.06;5292689;28;20043;-76
2023/11/26 10:03:23;;;;;;;13.45;5.50;;;;;;;8.02;100.00;101506.91;5292239;28;20127;-76
2023/11/26 10:06:08;;;;;;;8.73;4.78;;;;;;;8.27;100.00;101498.34;5291900;28;20032;-76
2023/11/26 10:08:40;;;;;;;12.35;4.80;;;;;;;8.10;100.00;101501.19;5296214;28;20032;-76
2023/11/26 10:11:20;;;;;;;12.02;5.18;;;;;;;8.20;100.00;101499.69;5293372;28;20034;-76
2023/11/26 10:13:53;;;;;;;10.70;4.93;;;;;;;8.16;100.00;101506.03;5297741;28;20381;-76
2023/11/26 10:16:33;;;;;;;8.70;5.70;;;;;;;8.27;100.00;101493.97;5295822;28;20148;-76
2023/11/26 10:19:05;;;;;;;7.97;4.72;;;;;;;8.22;100.00;101489.97;5293431;28;20051;-77
2023/11/26 10:21:51;;;;;;;6.35;3.85;;;;;;;8.48;100.00;101491.75;5296245;28;20028;-76
2023/11/26 10:24:27;;;;;;;8.52;4.32;;;;;;;8.34;100.00;101486.56;5278159;28;20036;-76
2023/11/26 10:26:59;;;;;;;9.05;3.90;;;;;;;8.30;100.00;101487.72;5293194;28;20044;-76
2023/11/26 10:29:42;;;;;;;6.95;3.63;;;;;;;8.60;100.00;101481.44;5296300;28;20034;-77
2023/11/26 10:32:17;;;;;;;10.70;3.60;;;;;;;8.47;100.00;101482.25;5290091;28;20473;-77
2023/11/26 10:34:55;;;;;;;7.05;3.50;;;;;;;8.60;100.00;101481.44;5292466;28;20024;-77
2023/11/26 10:37:27;;;;;;;7.72;3.63;;;;;;;8.54;100.00;101477.47;5294690;28;20040;-77
2023/11/26 10:39:59;;;;;;;9.20;3.70;;;;;;;8.52;100.00;101482.78;5292935;28;20041;-77
2023/11/26 10:42:31;;;;;;;9.52;3.22;;;;;;;8.52;100.00;101471.50;5292943;28;20032;-77
2023/11/26 10:45:04;;;;;;;5.05;3.05;;;;;;;8.61;100.00;101467.44;5293535;28;20027;-77
2023/11/26 10:47:39;;;;;;;7.82;3.10;;;;;;;8.73;100.00;101471.84;5294250;28;20052;-77
2023/11/26 10:50:15;;;;;;;6.28;3.20;;;;;;;8.61;100.00;101470.06;5287607;28;20062;-76
2023/11/26 10:52:57;;;;;;;7.28;3.38;;;;;;;8.74;100.00;101460.44;5283829;28;20580;-77
2023/11/26 10:55:38;;;;;;;9.15;2.90;;;;;;;8.81;100.00;101466.09;5287704;28;20035;-77
2023/11/26 10:58:18;;;;;;;5.10;2.67;;;;;;;8.78;100.00;101470.59;5288837;28;20032;-76
2023/11/26 11:00:54;;;;;;;6.38;2.67;;;;;;;8.77;100.00;101466.31;5290136;28;20387;-77
2023/11/26 11:03:27;;;;;;;6.50;2.72;;;;;;;8.76;100.00;101456.81;5287911;28;20697;-77
2023/11/26 11:06:01;;;;;;;8.63;2.90;;;;;;;8.90;100.00;101465.47;5293266;28;20044;-76
2023/11/26 11:08:38;;;;;;;7.00;2.40;;;;;;;8.87;100.00;101470.94;5286710;28;20032;-77
2023/11/26 11:11:42;;;;;;;4.88;2.13;;;;;;;9.12;100.00;101472.69;5269421;28;20102;-77
2023/11/26 11:14:14;;;;;;;5.53;2.42;;;;;;;8.88;100.00;101467.38;5274632;28;20047;-77
2023/11/26 11:16:46;;;;;;;6.07;3.13;;;;;;;8.93;100.00;101468.72;5290760;28;20044;-77
2023/11/26 11:19:50;;;;;;;5.75;2.50;;;;;;;9.15;100.00;101467.25;5293162;28;20032;-77
2023/11/26 11:22:46;;;;;;;6.82;2.30;;;;;;;9.20;100.00;101470.38;5292868;28;20032;-77
2023/11/26 11:25:18;;;;;;;8.02;2.47;;;;;;;8.97;100.00;101464.94;5274798;28;20378;-77
2023/11/26 11:28:00;;;;;;;6.25;2.20;;;;;;;9.09;100.00;101457.22;5291572;28;20047;-77
2023/11/26 11:30:32;;;;;;;7.28;2.28;;;;;;;8.94;100.00;101453.88;5289858;28;20576;-77
2023/11/26 11:33:08;;;;;;;5.93;2.38;;;;;;;9.03;100.00;101448.03;5291990;28;20024;-77
2023/11/26 11:35:46;;;;;;;6.22;2.15;;;;;;;8.99;100.00;101451.81;5288085;28;20043;-76
2023/11/26 11:38:18;;;;;;;6.95;2.50;;;;;;;8.98;100.00;101450.13;5293186;28;20039;-77
2023/11/26 11:41:08;;;;;;;5.00;2.35;;;;;;;9.00;100.00;101454.28;5289857;28;20086;-77
2023/11/26 11:43:41;;;;;;;6.22;2.15;;;;;;;9.01;100.00;101455.97;5273217;28;20047;-77
2023/11/26 11:46:25;;;;;;;6.28;2.22;;;;;;;9.19;100.00;101453.03;5290268;28;20474;-77
2023/11/26 11:48:59;;;;;;;5.53;2.15;;;;;;;8.98;100.00;101457.97;5291935;28;20019;-77
2023/11/26 11:51:34;;;;;;;;;;;;;;;9.65;100.00;101455.03;5290265;28;20040;-77